Time;durP1;ratioP1;P1;durP2;ratioP2;P2;SDS_P1;SDS_P2;PMS_P1;PMS_P2;Temp;Humidity;BMP_temperature;BMP_pressure;BME280_temperature;BME280_humidity;BME280_pressure;Samples;Min_cycle;Max_cycle;Signal;HPM_P1;HPM_P2
2023/06/11 00:00:23;;;;;;;7.63;4.95;;;;;;;17.74;100.00;99696.31;4983373;28;20070;-74
2023/06/11 00:02:54;;;;;;;6.05;4.57;;;;;;;18.25;100.00;99792.47;4982429;28;20066;-74
2023/06/11 00:05:28;;;;;;;14.48;4.75;;;;;;;18.04;100.00;99736.69;4974163;28;20097;-74
2023/06/11 00:07:55;;;;;;;6.63;4.25;;;;;;;17.81;100.00;99695.16;4976487;28;20050;-72
2023/06/11 00:10:22;;;;;;;8.20;5.15;;;;;;;17.66;100.00;99685.16;4982536;28;20022;-72
2023/06/11 00:12:48;;;;;;;6.70;3.40;;;;;;;18.34;100.00;99786.78;4982263;28;20050;-72
2023/06/11 00:15:13;;;;;;;6.50;4.18;;;;;;;18.42;100.00;99786.47;4985892;28;20047;-73
2023/06/11 00:17:39;;;;;;;5.43;3.95;;;;;;;18.23;100.00;99773.94;4984211;28;20054;-72
2023/06/11 00:20:11;;;;;;;6.90;3.97;;;;;;;17.90;100.00;99700.09;4977130;28;20054;-72
2023/06/11 00:22:39;;;;;;;6.00;3.88;;;;;;;17.51;100.00;99679.56;4983938;28;20046;-72
2023/06/11 00:25:07;;;;;;;6.63;3.88;;;;;;;18.22;100.00;99788.16;4985564;28;20483;-73
2023/06/11 00:27:35;;;;;;;9.00;4.55;;;;;;;18.35;100.00;99805.31;4981594;28;20699;-72
2023/06/11 00:30:03;;;;;;;8.80;3.45;;;;;;;17.60;100.00;99664.16;4980236;28;20414;-72
2023/06/11 00:32:29;;;;;;;6.18;3.20;;;;;;;18.42;100.00;99787.31;4985258;28;20057;-72
2023/06/11 00:34:54;;;;;;;7.45;5.53;;;;;;;18.32;100.00;99770.03;4980677;28;20058;-72
2023/06/11 00:37:20;;;;;;;5.97;3.83;;;;;;;17.81;100.00;99687.19;4980971;28;20399;-71
2023/06/11 00:39:45;;;;;;;6.75;4.18;;;;;;;18.40;100.00;99785.66;4980884;28;20034;-71
2023/06/11 00:42:12;;;;;;;6.10;3.60;;;;;;;18.26;100.00;99787.13;4978341;28;20038;-77
2023/06/11 00:44:39;;;;;;;8.32;4.93;;;;;;;17.76;100.00;99726.28;4979334;28;20218;-75
2023/06/11 00:47:06;;;;;;;7.75;3.20;;;;;;;17.24;100.00;99633.78;4959761;28;20097;-76
2023/06/11 00:49:32;;;;;;;5.30;3.47;;;;;;;17.89;100.00;99783.31;4978352;28;20052;-74
2023/06/11 00:51:58;;;;;;;7.85;3.83;;;;;;;17.30;100.00;99664.47;4980821;28;20149;-72
2023/06/11 00:54:24;;;;;;;7.38;3.20;;;;;;;17.94;100.00;99796.41;4983840;28;20061;-74
2023/06/11 00:56:51;;;;;;;5.78;4.03;;;;;;;17.94;100.00;99793.75;4976299;28;20058;-73
2023/06/11 00:59:17;;;;;;;5.20;3.78;;;;;;;17.63;100.00;99740.97;4979174;28;20616;-73
2023/06/11 01:02:08;;;;;;;9.57;4.68;;;;;;;17.32;100.00;99694.44;4984219;28;20722;-72
2023/06/11 01:04:35;;;;;;;8.80;4.22;;;;;;;17.41;100.00;99687.94;4981295;28;20066;-74
2023/06/11 01:07:06;;;;;;;5.22;3.05;;;;;;;17.34;100.00;99703.22;4987878;28;20088;-73
2023/06/11 01:09:32;;;;;;;8.10;4.80;;;;;;;17.45;100.00;99695.69;4985044;28;20112;-74
2023/06/11 01:11:58;;;;;;;6.43;4.03;;;;;;;17.45;100.00;99721.38;4979774;28;20073;-73
2023/06/11 01:14:24;;;;;;;6.38;3.72;;;;;;;17.92;100.00;99804.41;4984615;28;20046;-73
2023/06/11 01:17:02;;;;;;;7.18;4.07;;;;;;;17.87;100.00;99806.38;4978818;28;20158;-75
2023/06/11 01:19:37;;;;;;;9.10;4.65;;;;;;;17.91;100.00;99799.16;4977786;28;20100;-71
2023/06/11 01:22:13;;;;;;;7.00;3.97;;;;;;;17.93;100.00;99797.31;4982543;28;20061;-74
2023/06/11 01:25:01;;;;;;;5.68;3.67;;;;;;;17.07;100.00;99676.84;4974160;28;20054;-74
2023/06/11 01:27:51;;;;;;;5.72;4.10;;;;;;;17.76;100.00;99802.41;4981635;28;20474;-73
2023/06/11 01:30:20;;;;;;;4.20;3.35;;;;;;;17.64;100.00;99787.81;4985630;28;20052;-73
2023/06/11 01:32:52;;;;;;;8.38;4.50;;;;;;;17.57;100.00;99773.94;4984188;28;20042;-73
2023/06/11 01:35:18;;;;;;;5.27;3.80;;;;;;;17.57;100.00;99763.31;4982458;28;20806;-73
2023/06/11 01:37:45;;;;;;;6.38;3.92;;;;;;;17.56;100.00;99782.81;4979409;28;20129;-73
2023/06/11 01:40:13;;;;;;;6.85;3.90;;;;;;;17.54;100.00;99802.38;4978347;28;20132;-75
2023/06/11 01:42:39;;;;;;;5.72;3.50;;;;;;;17.66;100.00;99825.78;4972703;28;20050;-73
2023/06/11 01:45:05;;;;;;;11.57;3.78;;;;;;;17.21;100.00;99708.16;4980644;28;20070;-73
2023/06/11 01:47:31;;;;;;;6.47;4.97;;;;;;;17.48;100.00;99734.50;4980922;28;20058;-73
2023/06/11 01:49:57;;;;;;;4.65;3.10;;;;;;;17.41;100.00;99710.00;4983752;28;20507;-74
2023/06/11 01:52:24;;;;;;;7.07;2.97;;;;;;;17.77;100.00;99809.41;4984536;28;20053;-72
2023/06/11 01:54:51;;;;;;;5.75;4.05;;;;;;;17.02;100.00;99717.69;4979188;28;20042;-73
2023/06/11 01:57:17;;;;;;;6.28;3.25;;;;;;;17.38;100.00;99794.13;4978083;28;21103;-73
2023/06/11 01:59:42;;;;;;;7.18;3.90;;;;;;;17.04;100.00;99731.75;4972923;28;20490;-73
2023/06/11 02:02:08;;;;;;;6.53;3.72;;;;;;;16.90;100.00;99699.63;4978870;28;20074;-73
2023/06/11 02:04:33;;;;;;;9.25;3.88;;;;;;;16.83;100.00;99699.88;4981536;28;20054;-72
2023/06/11 02:06:59;;;;;;;5.90;3.35;;;;;;;17.60;100.00;99810.94;4981758;28;20626;-72
2023/06/11 02:09:25;;;;;;;6.72;3.42;;;;;;;16.47;100.00;99630.53;4980095;28;20054;-75
2023/06/11 02:11:50;;;;;;;4.68;3.22;;;;;;;17.51;100.00;99816.59;4976773;28;20069;-73
2023/06/11 02:14:16;;;;;;;5.60;3.92;;;;;;;16.80;100.00;99722.94;4983297;28;20445;-72
2023/06/11 02:16:41;;;;;;;4.82;3.28;;;;;;;17.26;100.00;99796.31;4981014;28;20038;-73
2023/06/11 02:19:07;;;;;;;7.57;4.35;;;;;;;17.24;100.00;99811.41;4977795;28;20064;-75
2023/06/11 02:21:33;;;;;;;5.57;3.38;;;;;;;17.31;100.00;99833.28;4980202;28;20047;-74
2023/06/11 02:23:58;;;;;;;5.05;3.45;;;;;;;16.71;100.00;99733.84;4980340;28;20081;-72
2023/06/11 02:26:24;;;;;;;6.93;3.97;;;;;;;17.18;100.00;99824.91;4982109;28;20046;-74
2023/06/11 02:28:49;;;;;;;9.85;4.47;;;;;;;17.35;100.00;99849.94;4973971;28;20053;-74
2023/06/11 02:31:15;;;;;;;4.88;3.70;;;;;;;17.30;100.00;99852.75;4983345;28;20034;-73
2023/06/11 02:33:40;;;;;;;4.88;3.10;;;;;;;17.14;100.00;99835.66;4980298;28;20048;-74
2023/06/11 02:36:07;;;;;;;4.25;2.88;;;;;;;16.68;100.00;99754.22;4977204;28;20502;-73
2023/06/11 02:38:33;;;;;;;5.07;3.35;;;;;;;16.75;100.00;99772.56;4981184;28;20038;-75
2023/06/11 02:40:58;;;;;;;5.65;3.22;;;;;;;16.69;100.00;99765.69;4977849;28;20093;-74
2023/06/11 02:43:24;;;;;;;6.18;3.55;;;;;;;17.17;100.00;99854.13;4978320;28;20108;-73
2023/06/11 02:45:49;;;;;;;4.47;3.38;;;;;;;16.83;100.00;99820.88;4979367;28;20050;-73
2023/06/11 02:48:15;;;;;;;6.82;3.90;;;;;;;16.64;100.00;99800.28;4981750;28;20058;-74
2023/06/11 02:50:40;;;;;;;6.13;4.22;;;;;;;17.06;100.00;99865.13;4980465;28;20042;-74
2023/06/11 02:53:06;;;;;;;5.78;4.60;;;;;;;17.02;100.00;99864.38;4980537;28;20059;-73
2023/06/11 02:55:31;;;;;;;7.95;5.95;;;;;;;17.04;100.00;99857.25;4976090;28;20054;-74
2023/06/11 02:57:56;;;;;;;7.43;4.03;;;;;;;17.22;100.00;99857.47;4978520;28;20035;-72
2023/06/11 03:00:22;;;;;;;7.80;4.40;;;;;;;17.32;100.00;99871.28;4971945;28;20043;-73
2023/06/11 03:02:47;;;;;;;7.65;4.65;;;;;;;17.16;100.00;99849.75;4971451;28;20069;-72
2023/06/11 03:05:13;;;;;;;9.40;5.20;;;;;;;16.96;100.00;99795.66;4970702;28;20593;-73
2023/06/11 03:07:38;;;;;;;10.25;4.53;;;;;;;16.97;100.00;99800.03;4971762;28;20049;-75
2023/06/11 03:10:04;;;;;;;6.50;4.15;;;;;;;17.53;100.00;99873.13;4969813;28;20152;-74
2023/06/11 03:12:30;;;;;;;10.68;3.95;;;;;;;17.03;100.00;99799.81;4966135;28;20056;-74
2023/06/11 03:14:55;;;;;;;5.93;3.22;;;;;;;17.57;100.00;99888.00;4972777;28;20703;-74
2023/06/11 03:17:21;;;;;;;8.55;5.63;;;;;;;16.85;100.00;99827.84;4972050;28;20046;-74
2023/06/11 03:19:46;;;;;;;7.25;4.70;;;;;;;16.13;100.00;99689.97;4978002;28;20109;-75
2023/06/11 03:22:12;;;;;;;7.38;4.55;;;;;;;16.77;100.00;99784.84;4977352;28;20117;-74
2023/06/11 03:24:37;;;;;;;6.65;4.70;;;;;;;17.41;100.00;99893.00;4978124;28;20029;-74
2023/06/11 03:27:03;;;;;;;6.68;3.78;;;;;;;17.33;100.00;99865.91;4979412;28;20482;-74
2023/06/11 03:29:29;;;;;;;10.88;5.78;;;;;;;17.42;100.00;99891.22;4979660;28;20046;-73
2023/06/11 03:31:55;;;;;;;12.23;5.75;;;;;;;17.55;100.00;99891.66;4977238;28;20050;-74
2023/06/11 03:34:20;;;;;;;6.57;4.80;;;;;;;17.56;100.00;99898.66;4982006;28;20034;-73
2023/06/11 03:36:46;;;;;;;8.57;4.32;;;;;;;17.55;100.00;99899.59;4978308;28;20100;-75
2023/06/11 03:39:11;;;;;;;8.20;5.43;;;;;;;17.54;100.00;99893.44;4981064;28;20125;-71
2023/06/11 03:41:37;;;;;;;9.95;5.28;;;;;;;16.68;100.00;99722.44;4981382;28;20042;-75
2023/06/11 03:44:02;;;;;;;7.10;4.68;;;;;;;17.05;100.00;99789.16;4979075;28;20057;-76
2023/06/11 03:46:28;;;;;;;6.15;4.15;;;;;;;17.19;100.00;99812.53;4973078;28;20133;-73
2023/06/11 03:48:53;;;;;;;8.88;4.60;;;;;;;17.64;100.00;99883.34;4978066;28;20045;-73
2023/06/11 03:51:19;;;;;;;11.68;4.40;;;;;;;17.50;100.00;99844.06;4978501;28;20053;-74
2023/06/11 03:53:44;;;;;;;8.27;5.35;;;;;;;17.95;100.00;99906.09;4980612;28;20050;-73
2023/06/11 03:56:10;;;;;;;7.38;4.90;;;;;;;17.87;100.00;99906.41;4980404;28;20050;-74
2023/06/11 03:58:35;;;;;;;8.65;5.43;;;;;;;17.91;100.00;99921.25;4982182;28;20054;-73
2023/06/11 04:01:01;;;;;;;12.18;4.70;;;;;;;18.05;100.00;99912.75;4982537;28;20042;-73
2023/06/11 04:03:26;;;;;;;7.93;4.95;;;;;;;17.33;100.00;99802.28;4981226;28;20428;-73
2023/06/11 04:05:51;;;;;;;7.30;4.88;;;;;;;18.11;100.00;99908.09;4980911;28;20478;-73
2023/06/11 04:08:17;;;;;;;10.57;3.80;;;;;;;17.59;100.00;99818.97;4979471;28;20061;-73
2023/06/11 04:10:43;;;;;;;18.30;5.15;;;;;;;18.29;100.00;99926.91;4980523;28;20100;-74
2023/06/11 04:13:08;;;;;;;8.43;6.28;;;;;;;18.35;100.00;99919.56;4982858;28;20523;-73
2023/06/11 04:15:34;;;;;;;8.70;5.10;;;;;;;18.25;100.00;99880.97;4981219;28;20034;-73
2023/06/11 04:18:00;;;;;;;5.63;3.97;;;;;;;17.96;100.00;99815.78;4985448;28;20045;-74
2023/06/11 04:20:25;;;;;;;9.60;4.95;;;;;;;18.70;100.00;99914.56;4976667;28;20398;-74
2023/06/11 04:22:51;;;;;;;6.45;4.72;;;;;;;18.09;100.00;99794.91;4982099;28;20057;-73
2023/06/11 04:25:19;;;;;;;7.68;5.05;;;;;;;18.85;100.00;99923.75;4977042;28;20707;-73
2023/06/11 04:27:49;;;;;;;12.25;4.53;;;;;;;18.02;100.00;99758.91;5003558;28;20039;-73
2023/06/11 04:30:14;;;;;;;14.13;4.47;;;;;;;19.04;100.00;99928.28;4979713;28;20050;-74
2023/06/11 04:32:41;;;;;;;10.90;3.67;;;;;;;19.21;100.00;99930.22;4984391;28;20104;-74
2023/06/11 04:35:07;;;;;;;6.68;4.18;;;;;;;18.46;100.00;99796.88;4985586;28;20643;-74
2023/06/11 04:37:38;;;;;;;4.78;3.47;;;;;;;18.90;100.00;99865.06;5002364;28;20132;-73
2023/06/11 04:40:11;;;;;;;7.03;4.43;;;;;;;19.35;100.00;99915.38;4980021;28;20423;-74
2023/06/11 04:42:43;;;;;;;9.77;4.20;;;;;;;19.38;100.00;99888.63;4982001;28;20134;-74
2023/06/11 04:45:09;;;;;;;6.13;3.97;;;;;;;19.55;100.00;99901.19;4976348;28;20057;-72
2023/06/11 04:47:36;;;;;;;5.65;3.55;;;;;;;19.72;100.00;99928.88;4979158;28;20058;-74
2023/06/11 04:50:04;;;;;;;15.18;5.07;;;;;;;19.94;100.00;99928.72;4983070;28;20138;-74
2023/06/11 04:52:37;;;;;;;6.50;3.55;;;;;;;19.61;100.00;99855.63;4980991;28;20081;-74
2023/06/11 04:55:03;;;;;;;8.02;3.42;;;;;;;19.65;100.00;99832.41;4988085;28;20117;-74
2023/06/11 04:57:34;;;;;;;12.52;3.75;;;;;;;19.92;100.00;99859.56;4981163;28;20077;-75
2023/06/11 05:00:00;;;;;;;5.93;3.15;;;;;;;20.54;100.00;99939.22;4984298;28;20046;-74
2023/06/11 05:02:27;;;;;;;5.82;3.17;;;;;;;20.13;100.00;99863.00;4985044;28;20085;-77
2023/06/11 05:04:53;;;;;;;6.95;3.20;;;;;;;20.79;100.00;99941.53;4991426;28;20054;-74
2023/06/11 05:07:20;;;;;;;4.75;3.15;;;;;;;20.56;100.00;99894.72;4984504;28;20041;-74
2023/06/11 05:09:45;;;;;;;5.45;3.25;;;;;;;21.25;100.00;99955.22;4976877;28;20038;-76
2023/06/11 05:12:11;;;;;;;7.70;3.35;;;;;;;21.44;100.00;99966.69;4981178;28;20053;-77
2023/06/11 05:14:37;;;;;;;5.10;3.50;;;;;;;20.86;100.00;99908.28;4984763;28;20042;-74
2023/06/11 05:17:02;;;;;;;6.03;2.78;;;;;;;21.75;100.00;99958.88;4984389;28;20042;-72
2023/06/11 05:19:28;;;;;;;5.35;3.58;;;;;;;21.64;100.00;99930.09;4979037;28;20152;-73
2023/06/11 05:21:54;;;;;;;4.13;2.80;;;;;;;22.04;100.00;99895.84;4984872;28;20034;-72
2023/06/11 05:24:20;;;;;;;7.38;3.20;;;;;;;22.58;100.00;99973.91;4980215;28;20050;-73
2023/06/11 05:26:47;;;;;;;3.28;2.30;;;;;;;23.12;100.00;99992.25;4980955;28;20402;-73
2023/06/11 05:29:12;;;;;;;5.10;3.47;;;;;;;22.89;100.00;99908.78;4979155;28;20092;-75
2023/06/11 05:31:38;;;;;;;4.43;3.58;;;;;;;23.69;100.00;100003.09;4972569;28;20446;-76
2023/06/11 05:34:04;;;;;;;4.93;3.15;;;;;;;23.84;100.00;100008.53;4979524;28;20487;-75
2023/06/11 05:36:31;;;;;;;5.60;3.22;;;;;;;23.92;98.80;99995.50;4973745;28;20108;-77
2023/06/11 05:38:56;;;;;;;12.23;3.10;;;;;;;24.29;97.50;100007.44;4997196;28;20058;-76
2023/06/11 05:41:22;;;;;;;5.85;2.92;;;;;;;24.29;93.88;99977.94;4972845;28;20336;-76
2023/06/11 05:43:48;;;;;;;4.70;2.65;;;;;;;23.77;91.84;99908.91;4978013;28;20084;-78
2023/06/11 05:46:14;;;;;;;3.65;2.22;;;;;;;23.70;92.28;99932.50;4980798;28;20121;-76
2023/06/11 05:48:41;;;;;;;3.88;2.35;;;;;;;24.16;89.12;99899.25;4979756;28;20737;-77
2023/06/11 05:51:08;;;;;;;4.72;2.90;;;;;;;25.25;85.51;99961.84;4985163;28;20046;-78
2023/06/11 05:53:33;;;;;;;4.60;2.50;;;;;;;24.78;83.23;99950.63;4977932;28;20062;-77
2023/06/11 05:56:03;;;;;;;5.65;2.88;;;;;;;24.45;83.57;99945.63;4978202;28;23183;-77
2023/06/11 05:58:33;;;;;;;4.03;2.65;;;;;;;24.96;82.89;99972.72;4979314;28;20061;-76
2023/06/11 06:01:04;;;;;;;5.10;2.63;;;;;;;25.28;82.88;100002.78;4984566;28;20413;-76
2023/06/11 06:03:31;;;;;;;12.75;2.40;;;;;;;25.01;82.51;100004.63;4979317;28;20465;-75
2023/06/11 06:05:58;;;;;;;4.55;1.95;;;;;;;24.33;85.44;99912.44;4975254;28;20053;-78
2023/06/11 06:08:25;;;;;;;4.60;2.30;;;;;;;24.63;85.23;99978.47;4972223;28;20058;-75
2023/06/11 06:10:51;;;;;;;5.85;2.45;;;;;;;24.27;83.71;99848.47;4962890;28;20466;-77
2023/06/11 06:13:16;;;;;;;3.00;1.67;;;;;;;24.73;81.11;99893.72;4981523;28;20045;-75
2023/06/11 06:15:42;;;;;;;4.20;2.05;;;;;;;24.61;82.37;99962.50;4981215;28;20080;-76
2023/06/11 06:18:08;;;;;;;2.40;1.58;;;;;;;24.48;82.04;99921.31;4974116;28;20050;-74
2023/06/11 06:20:33;;;;;;;3.53;2.03;;;;;;;23.39;90.26;99901.41;4980265;28;20050;-75
2023/06/11 06:22:59;;;;;;;3.38;2.25;;;;;;;23.72;95.47;99991.34;4977211;28;20847;-73
2023/06/11 06:25:25;;;;;;;4.60;2.40;;;;;;;24.47;93.24;99996.50;4978055;28;20410;-76
2023/06/11 06:27:51;;;;;;;3.03;2.00;;;;;;;23.88;92.93;99914.44;4981665;28;20038;-75
2023/06/11 06:30:17;;;;;;;6.80;1.95;;;;;;;24.56;89.78;99928.84;4981195;28;20497;-75
2023/06/11 06:32:43;;;;;;;4.35;2.33;;;;;;;24.64;91.66;100004.34;5003323;28;20061;-75
2023/06/11 06:35:08;;;;;;;3.60;1.88;;;;;;;23.80;92.99;99865.81;4976217;28;20051;-76
2023/06/11 06:37:34;;;;;;;4.07;2.10;;;;;;;24.79;91.33;100007.84;4979030;28;20405;-75
2023/06/11 06:40:00;;;;;;;3.72;2.08;;;;;;;24.31;90.32;99976.03;4975863;28;20100;-75
2023/06/11 06:42:25;;;;;;;3.50;1.83;;;;;;;24.10;91.63;99918.44;4981489;28;20097;-76
2023/06/11 06:44:51;;;;;;;2.72;1.98;;;;;;;24.73;87.71;99927.75;4980334;28;20050;-76
2023/06/11 06:47:16;;;;;;;3.22;1.65;;;;;;;24.77;87.08;99985.59;4975172;28;20481;-75
2023/06/11 06:49:42;;;;;;;7.30;2.15;;;;;;;24.35;87.81;99906.94;4976006;28;20129;-78
2023/06/11 06:52:11;;;;;;;2.85;1.95;;;;;;;24.35;88.57;99958.78;4983315;28;20034;-76
2023/06/11 06:54:37;;;;;;;3.90;2.92;;;;;;;24.73;85.82;99936.66;4984608;28;20073;-76
2023/06/11 06:57:05;;;;;;;7.80;2.15;;;;;;;24.52;86.96;99909.44;4980020;28;20065;-76
2023/06/11 06:59:30;;;;;;;1.85;1.30;;;;;;;24.93;85.30;99951.41;4983245;28;20053;-77
2023/06/11 07:01:57;;;;;;;5.55;2.65;;;;;;;25.67;83.25;99987.56;4978875;28;20054;-76
2023/06/11 07:04:22;;;;;;;3.75;2.53;;;;;;;24.95;83.19;99928.03;4977991;28;20125;-77
2023/06/11 07:06:48;;;;;;;3.40;2.13;;;;;;;24.48;84.88;99909.75;4977219;28;20388;-76
2023/06/11 07:09:13;;;;;;;3.60;2.17;;;;;;;24.48;89.68;99913.28;4976658;28;20042;-77
2023/06/11 07:11:39;;;;;;;4.90;2.80;;;;;;;24.92;84.67;99908.59;4976852;28;20050;-75
2023/06/11 07:14:04;;;;;;;3.25;1.98;;;;;;;24.78;83.33;99917.56;4980785;28;20046;-77
2023/06/11 07:16:30;;;;;;;20.58;2.03;;;;;;;24.15;85.00;99740.22;4981476;28;20494;-76
2023/06/11 07:18:55;;;;;;;3.63;1.42;;;;;;;25.09;84.66;99990.69;4978511;28;20034;-74
2023/06/11 07:21:23;;;;;;;10.95;2.45;;;;;;;24.64;86.39;99891.66;4973417;28;20050;-76
2023/06/11 07:23:48;;;;;;;4.40;2.03;;;;;;;25.26;87.06;99975.19;4979619;28;20077;-75
2023/06/11 07:26:15;;;;;;;2.80;2.22;;;;;;;25.26;86.82;99996.66;4979422;28;20130;-76
2023/06/11 07:28:41;;;;;;;3.10;2.13;;;;;;;25.53;84.11;99916.97;4979434;28;20081;-74
2023/06/11 07:31:08;;;;;;;5.00;1.83;;;;;;;25.73;83.49;99997.06;5005379;28;20041;-74
2023/06/11 07:33:33;;;;;;;4.13;2.35;;;;;;;25.04;84.60;99867.47;5007221;28;20058;-76
2023/06/11 07:36:00;;;;;;;5.15;1.70;;;;;;;25.46;86.71;99968.44;4976153;28;20054;-76
2023/06/11 07:38:25;;;;;;;2.92;1.65;;;;;;;24.98;89.63;99980.63;4982372;28;20511;-76
2023/06/11 07:40:52;;;;;;;6.55;2.55;;;;;;;25.12;87.96;99947.50;4977786;28;20050;-76
2023/06/11 07:43:17;;;;;;;3.10;1.90;;;;;;;25.61;83.78;99895.78;5004031;28;20475;-75
2023/06/11 07:45:43;;;;;;;3.10;2.25;;;;;;;25.99;81.64;99987.19;4982299;28;20048;-75
2023/06/11 07:48:09;;;;;;;2.40;1.48;;;;;;;26.43;79.58;99966.09;4979625;28;20061;-76
2023/06/11 07:50:35;;;;;;;12.27;3.92;;;;;;;26.10;75.46;99932.59;4984302;28;20309;-77
2023/06/11 07:53:00;;;;;;;5.43;2.40;;;;;;;26.11;75.73;99998.88;4978482;28;20058;-76
2023/06/11 07:55:26;;;;;;;2.80;1.85;;;;;;;26.59;77.87;99987.38;4981497;28;20046;-76
2023/06/11 07:57:52;;;;;;;3.08;1.48;;;;;;;26.24;72.80;99905.56;4979904;28;20042;-76
2023/06/11 08:00:17;;;;;;;4.13;2.30;;;;;;;26.01;73.82;99952.09;4983779;28;20526;-76
2023/06/11 08:02:44;;;;;;;4.38;1.58;;;;;;;25.57;75.67;99891.59;4984584;28;20035;-78
2023/06/11 08:05:17;;;;;;;3.10;1.52;;;;;;;26.36;73.93;99922.63;4983128;28;20121;-76
2023/06/11 08:07:45;;;;;;;2.85;2.00;;;;;;;25.77;72.42;99903.59;4978119;28;20050;-75
2023/06/11 08:10:11;;;;;;;2.90;1.67;;;;;;;26.92;71.20;99970.56;4977291;28;20129;-75
2023/06/11 08:12:37;;;;;;;3.25;1.67;;;;;;;27.07;68.93;99977.47;4983315;28;20023;-75
2023/06/11 08:15:03;;;;;;;6.00;2.17;;;;;;;26.43;72.57;99966.94;4980638;28;20060;-76
2023/06/11 08:17:28;;;;;;;5.32;2.22;;;;;;;25.45;75.97;99960.47;4983691;28;20192;-75
2023/06/11 08:19:54;;;;;;;3.13;1.55;;;;;;;25.42;80.49;99950.78;4984724;28;20054;-76
2023/06/11 08:22:19;;;;;;;3.45;1.83;;;;;;;26.06;75.27;99902.41;4986293;28;20417;-76
2023/06/11 08:24:45;;;;;;;3.63;2.20;;;;;;;26.88;70.07;99924.16;4955835;28;20145;-76
2023/06/11 08:27:12;;;;;;;4.68;1.48;;;;;;;26.39;69.07;99891.97;4980315;28;20061;-76
2023/06/11 08:29:37;;;;;;;3.65;1.83;;;;;;;26.13;70.00;99888.50;4987083;28;20417;-76
2023/06/11 08:32:03;;;;;;;5.47;2.95;;;;;;;27.42;69.26;99986.53;4983335;28;20062;-77
2023/06/11 08:34:29;;;;;;;4.80;1.75;;;;;;;26.92;69.34;99955.25;4984709;28;20046;-77
2023/06/11 08:36:56;;;;;;;2.92;1.58;;;;;;;26.54;68.45;99896.22;4981700;28;20042;-77
2023/06/11 08:39:22;;;;;;;6.75;1.95;;;;;;;27.75;65.57;99988.47;4984661;28;20054;-76
2023/06/11 08:41:47;;;;;;;3.95;2.65;;;;;;;27.71;63.76;99976.22;4981999;28;20074;-75
2023/06/11 08:44:14;;;;;;;3.88;1.30;;;;;;;28.36;61.45;99982.75;4981508;28;20073;-77
2023/06/11 08:46:44;;;;;;;6.60;1.85;;;;;;;29.12;58.66;99997.19;4980251;28;20161;-76
2023/06/11 08:49:20;;;;;;;2.60;1.50;;;;;;;28.67;56.73;99961.34;4982987;28;20156;-76
2023/06/11 08:51:47;;;;;;;5.15;2.05;;;;;;;28.25;55.39;99916.13;4981336;28;20416;-75
2023/06/11 08:54:12;;;;;;;6.78;2.17;;;;;;;29.12;55.42;99910.72;4982367;28;20366;-76
2023/06/11 08:56:38;;;;;;;3.85;1.92;;;;;;;28.51;53.48;99951.81;4972127;28;20050;-77
2023/06/11 08:59:06;;;;;;;3.45;1.73;;;;;;;29.53;52.61;100000.06;4982534;28;20042;-77
2023/06/11 09:01:32;;;;;;;3.13;2.08;;;;;;;29.54;51.63;99999.91;4979729;28;20046;-76
2023/06/11 09:03:59;;;;;;;4.70;1.17;;;;;;;29.97;50.33;99919.59;4975301;28;20038;-70
2023/06/11 09:06:24;;;;;;;2.22;1.70;;;;;;;29.69;51.42;99907.66;4971301;28;20462;-74
2023/06/11 09:09:07;;;;;;;4.57;2.05;;;;;;;28.72;51.54;99907.81;4979686;28;20065;-74
2023/06/11 09:11:36;;;;;;;;;;;;;;;30.02;51.38;99971.47;5011721;28;20497;-74
2023/06/11 09:14:03;;;;;;;5.25;1.75;;;;;;;29.82;50.03;99876.69;4983219;28;19930;-75
2023/06/11 09:16:36;;;;;;;4.88;1.65;;;;;;;30.46;48.63;99894.41;4985330;28;20154;-74
2023/06/11 09:19:02;;;;;;;2.78;1.35;;;;;;;30.40;47.93;99957.22;4980639;28;20065;-74
2023/06/11 09:21:28;;;;;;;3.83;2.60;;;;;;;29.46;49.98;99880.78;4978374;28;20053;-74
2023/06/11 09:23:53;;;;;;;2.85;1.85;;;;;;;31.08;47.59;99964.59;4978096;28;20042;-74
2023/06/11 09:26:19;;;;;;;3.42;2.00;;;;;;;28.09;49.51;99803.22;4975898;28;20058;-73
2023/06/11 09:28:50;;;;;;;1.80;1.08;;;;;;;28.36;52.09;99958.44;4980278;28;20077;-74
2023/06/11 09:31:18;;;;;;;3.55;1.75;;;;;;;29.08;49.95;99860.66;4972537;28;20464;-72
2023/06/11 09:33:44;;;;;;;3.33;2.03;;;;;;;28.70;51.74;99934.94;4976677;28;20564;-72
2023/06/11 09:36:10;;;;;;;8.65;2.15;;;;;;;28.64;52.90;99958.91;4971607;28;20054;-72
2023/06/11 09:38:35;;;;;;;3.22;1.77;;;;;;;28.57;53.60;99958.56;4979197;28;20537;-72
2023/06/11 09:41:06;;;;;;;4.72;1.63;;;;;;;29.11;52.97;99927.09;4978936;28;20145;-72
2023/06/11 09:43:31;;;;;;;4.90;2.47;;;;;;;29.92;51.02;99935.38;4976952;28;21042;-72
2023/06/11 09:45:57;;;;;;;1.92;1.20;;;;;;;29.53;51.43;99951.41;4967301;28;20060;-72
2023/06/11 09:48:24;;;;;;;2.03;1.08;;;;;;;29.59;49.53;99883.25;4975307;28;20125;-72
2023/06/11 09:50:52;;;;;;;2.22;1.33;;;;;;;29.77;50.75;99946.56;4971987;28;20053;-73
2023/06/11 09:53:18;;;;;;;3.30;1.90;;;;;;;28.66;51.66;99897.50;4975938;28;20660;-74
2023/06/11 09:55:46;;;;;;;2.88;1.42;;;;;;;29.17;51.37;99927.41;4976939;28;20774;-74
2023/06/11 09:58:12;;;;;;;3.33;1.80;;;;;;;28.62;52.99;99961.72;4992583;28;20030;-75
2023/06/11 10:00:38;;;;;;;3.50;2.47;;;;;;;28.55;53.04;99930.84;4979257;28;20113;-76
2023/06/11 10:03:04;;;;;;;2.53;1.88;;;;;;;27.80;54.17;99897.28;4977205;28;20133;-75
2023/06/11 10:05:29;;;;;;;4.53;2.72;;;;;;;29.04;51.99;99954.56;4980215;28;20776;-75
2023/06/11 10:08:06;;;;;;;3.40;2.75;;;;;;;29.59;51.18;99930.06;4971734;28;20071;-75
2023/06/11 10:10:37;;;;;;;4.28;1.90;;;;;;;31.01;49.92;99964.31;4970645;28;20058;-74
2023/06/11 10:13:03;;;;;;;4.50;1.70;;;;;;;31.05;48.36;99908.84;4977228;28;20038;-75
2023/06/11 10:15:31;;;;;;;14.48;2.83;;;;;;;29.70;48.49;99861.56;4975048;28;20080;-77
2023/06/11 10:17:56;;;;;;;3.80;1.88;;;;;;;30.52;49.21;99966.09;4973775;28;20096;-77
2023/06/11 10:20:26;;;;;;;3.13;1.83;;;;;;;31.26;48.21;99956.63;4974514;28;20054;-77
2023/06/11 10:23:06;;;;;;;4.35;3.10;;;;;;;30.34;48.96;99960.47;4974237;28;20061;-77
2023/06/11 10:25:41;;;;;;;7.22;2.30;;;;;;;30.99;47.54;99943.78;4973715;28;20058;-77
2023/06/11 10:28:08;;;;;;;3.50;2.05;;;;;;;30.91;46.62;99880.31;4975735;28;20037;-77
2023/06/11 10:30:34;;;;;;;6.22;2.95;;;;;;;30.23;47.70;99931.66;4975879;28;20819;-77
2023/06/11 10:33:00;;;;;;;3.75;2.03;;;;;;;30.59;47.97;99942.03;4971327;28;20136;-77
2023/06/11 10:35:32;;;;;;;3.03;1.58;;;;;;;29.39;49.38;99922.84;4973538;28;20050;-78
2023/06/11 10:38:06;;;;;;;7.53;1.52;;;;;;;29.27;49.78;99894.16;4978797;28;20581;-78
2023/06/11 10:40:37;;;;;;;2.78;1.60;;;;;;;29.18;49.30;99939.06;4965789;28;20054;-75
2023/06/11 10:43:12;;;;;;;2.58;1.85;;;;;;;29.34;49.80;99906.19;4998834;28;20037;-76
2023/06/11 10:45:38;;;;;;;5.05;1.92;;;;;;;29.21;49.46;99896.41;4980521;28;20564;-75
2023/06/11 10:48:04;;;;;;;5.78;2.92;;;;;;;29.82;48.73;99825.28;4969831;28;20074;-73
2023/06/11 10:50:31;;;;;;;3.33;1.80;;;;;;;30.47;47.49;99906.09;4977289;28;20055;-75
2023/06/11 10:53:14;;;;;;;2.75;1.40;;;;;;;28.93;48.49;99832.22;4981628;28;20065;-76
2023/06/11 10:55:44;;;;;;;2.38;1.67;;;;;;;30.78;46.24;99846.34;4978375;28;20061;-75
2023/06/11 10:58:20;;;;;;;2.85;1.88;;;;;;;30.65;46.38;99923.34;4970509;28;20133;-75
2023/06/11 11:00:46;;;;;;;2.10;1.27;;;;;;;29.52;48.70;99893.75;4992915;28;20034;-76
2023/06/11 11:03:12;;;;;;;3.42;2.00;;;;;;;30.49;48.91;99880.56;4974917;28;20061;-75
2023/06/11 11:05:41;;;;;;;3.10;2.10;;;;;;;30.33;46.83;99834.25;4976595;28;20058;-76
2023/06/11 11:08:06;;;;;;;4.50;2.75;;;;;;;31.16;46.37;99891.53;4978266;28;20076;-76
2023/06/11 11:10:32;;;;;;;2.22;1.30;;;;;;;31.22;46.57;99825.06;5000384;28;20133;-77
2023/06/11 11:12:58;;;;;;;5.50;2.35;;;;;;;32.24;45.21;99898.34;4975632;28;20046;-76
2023/06/11 11:15:23;;;;;;;8.18;2.38;;;;;;;31.42;45.66;99885.50;4975453;28;20129;-75
2023/06/11 11:17:50;;;;;;;4.57;2.58;;;;;;;29.76;47.82;99820.44;4979173;28;20109;-75
2023/06/11 11:20:17;;;;;;;1.92;1.27;;;;;;;29.11;50.04;99846.88;4972791;28;20046;-74
2023/06/11 11:22:51;;;;;;;4.90;2.65;;;;;;;28.97;49.81;99809.34;4975765;28;20596;-76
2023/06/11 11:25:18;;;;;;;2.70;1.80;;;;;;;29.12;49.73;99823.41;4981915;28;20034;-75
2023/06/11 11:27:47;;;;;;;3.20;1.80;;;;;;;28.20;50.75;99864.41;4974999;28;20039;-75